Time;durP1;ratioP1;P1;durP2;ratioP2;P2;SDS_P1;SDS_P2;PMS_P1;PMS_P2;Temp;Humidity;BMP_temperature;BMP_pressure;BME280_temperature;BME280_humidity;BME280_pressure;Samples;Min_cycle;Max_cycle;Signal;HPM_P1;HPM_P2
2023/05/11 00:01:53;;;;;;;32.80;16.50;;;14.50;99.90;;;;;;5038989;28;20297;-73
2023/05/11 00:04:19;;;;;;;27.00;15.07;;;14.40;99.90;;;;;;5066156;28;20273;-76
2023/05/11 00:06:45;;;;;;;35.20;16.45;;;14.40;99.90;;;;;;5059307;28;20186;-73
2023/05/11 00:09:11;;;;;;;34.05;16.50;;;14.30;99.90;;;;;;5081429;28;20190;-73
2023/05/11 00:11:37;;;;;;;31.10;17.00;;;14.40;99.90;;;;;;5055119;28;20240;-73
2023/05/11 00:14:03;;;;;;;29.88;15.80;;;14.40;99.90;;;;;;5051691;28;20197;-73
2023/05/11 00:16:28;;;;;;;28.02;15.75;;;14.70;99.90;;;;;;5054792;28;20647;-73
2023/05/11 00:18:54;;;;;;;30.95;15.70;;;14.80;99.90;;;;;;5037109;28;20241;-73
2023/05/11 00:21:21;;;;;;;25.65;15.00;;;14.90;99.90;;;;;;5042047;28;20189;-73
2023/05/11 00:23:48;;;;;;;32.72;15.68;;;14.80;99.90;;;;;;5040722;28;20187;-73
2023/05/11 00:26:14;;;;;;;25.58;14.95;;;14.80;99.90;;;;;;5048223;28;20211;-74
2023/05/11 00:28:40;;;;;;;37.38;16.92;;;14.80;99.90;;;;;;5048806;28;20231;-73
2023/05/11 00:31:05;;;;;;;29.65;14.48;;;14.80;99.90;;;;;;5083763;28;20193;-73
2023/05/11 00:33:31;;;;;;;25.58;15.18;;;14.70;99.90;;;;;;5044332;28;20190;-73
2023/05/11 00:35:57;;;;;;;28.15;15.52;;;14.70;99.90;;;;;;5066877;28;20687;-73
2023/05/11 00:38:22;;;;;;;23.33;14.02;;;14.60;99.90;;;;;;5050944;28;20190;-74
2023/05/11 00:40:49;;;;;;;22.40;12.18;;;14.50;99.90;;;;;;5049925;28;20669;-73
2023/05/11 00:43:15;;;;;;;23.48;13.40;;;14.60;99.90;;;;;;5053217;28;20217;-74
2023/05/11 00:45:41;;;;;;;20.98;11.05;;;14.50;99.90;;;;;;5053553;28;20182;-74
2023/05/11 00:48:07;;;;;;;22.95;11.98;;;14.50;99.90;;;;;;5054051;28;20217;-74
2023/05/11 00:50:34;;;;;;;19.52;11.75;;;14.50;99.90;;;;;;5052877;28;20205;-74
2023/05/11 00:53:00;;;;;;;17.42;11.35;;;14.70;99.90;;;;;;5078410;28;20275;-73
2023/05/11 00:55:27;;;;;;;18.73;10.63;;;14.70;99.90;;;;;;5052671;28;20642;-73
2023/05/11 00:57:52;;;;;;;24.70;11.82;;;14.70;99.90;;;;;;5052431;28;20661;-74
2023/05/11 01:00:18;;;;;;;18.45;10.25;;;14.70;99.90;;;;;;5081715;28;20193;-74
2023/05/11 01:02:45;;;;;;;23.42;11.95;;;14.50;99.90;;;;;;5076011;28;20206;-73
2023/05/11 01:05:11;;;;;;;18.08;9.02;;;14.50;99.90;;;;;;5040442;28;20190;-74
2023/05/11 01:07:39;;;;;;;20.75;10.00;;;14.50;99.90;;;;;;5068360;28;20569;-74
2023/05/11 01:10:39;;;;;;;16.60;9.15;;;14.40;99.90;;;;;;5054108;28;20178;-74
2023/05/11 01:13:23;;;;;;;17.50;9.88;;;14.50;99.90;;;;;;5065129;28;20622;-74
2023/05/11 01:15:55;;;;;;;13.90;9.30;;;14.50;99.90;;;;;;5053831;28;20185;-74
2023/05/11 01:18:38;;;;;;;13.85;8.60;;;14.30;99.90;;;;;;5053904;28;20236;-74
2023/05/11 01:21:05;;;;;;;15.20;10.00;;;14.30;99.90;;;;;;5044870;28;20182;-74
2023/05/11 01:23:42;;;;;;;19.05;8.25;;;14.50;99.90;;;;;;5052430;28;20214;-74
2023/05/11 01:26:34;;;;;;;12.13;7.63;;;14.50;99.90;;;;;;5049513;28;20182;-74
2023/05/11 01:29:18;;;;;;;9.25;7.15;;;14.30;99.90;;;;;;5052254;28;20182;-74
2023/05/11 01:31:47;;;;;;;13.90;7.57;;;14.20;99.90;;;;;;5037611;28;20270;-74
2023/05/11 01:34:17;;;;;;;12.73;6.40;;;14.20;99.90;;;;;;5034803;28;20179;-74
2023/05/11 01:37:07;;;;;;;13.45;6.68;;;14.20;99.90;;;;;;5053765;28;20219;-74
2023/05/11 01:39:50;;;;;;;10.77;6.28;;;14.20;99.90;;;;;;5047913;28;20270;-75
2023/05/11 01:42:21;;;;;;;11.88;5.95;;;14.20;99.90;;;;;;5046502;28;20244;-74
2023/05/11 01:44:50;;;;;;;12.32;7.05;;;14.10;99.90;;;;;;5044367;28;20183;-74
2023/05/11 01:47:16;;;;;;;19.20;8.30;;;14.00;99.90;;;;;;5052246;28;20182;-74
2023/05/11 01:49:44;;;;;;;11.77;6.05;;;14.00;99.90;;;;;;5052852;28;20189;-74
2023/05/11 01:52:10;;;;;;;9.23;6.22;;;13.90;99.90;;;;;;5053602;28;20178;-74
2023/05/11 01:54:39;;;;;;;12.40;5.68;;;13.90;99.90;;;;;;5052114;28;20190;-74
2023/05/11 01:57:05;;;;;;;11.30;6.15;;;13.90;99.90;;;;;;5053059;28;20186;-74
2023/05/11 01:59:32;;;;;;;9.38;5.63;;;13.90;99.90;;;;;;5042992;28;20187;-75
2023/05/11 02:01:59;;;;;;;9.10;6.53;;;14.00;99.90;;;;;;5048776;28;20217;-74
2023/05/11 02:04:26;;;;;;;9.38;5.85;;;13.90;99.90;;;;;;5050917;28;20194;-74
2023/05/11 02:06:53;;;;;;;12.10;6.35;;;13.90;99.90;;;;;;5051272;28;20274;-74
2023/05/11 02:09:20;;;;;;;8.50;5.53;;;13.80;99.90;;;;;;5047874;28;20413;-74
2023/05/11 02:11:48;;;;;;;12.68;5.50;;;13.90;99.90;;;;;;5047081;28;20186;-75
2023/05/11 02:14:16;;;;;;;7.95;5.80;;;13.90;99.90;;;;;;5039917;28;20179;-74
2023/05/11 02:16:45;;;;;;;10.77;6.05;;;14.00;99.90;;;;;;5052864;28;20182;-74
2023/05/11 02:19:13;;;;;;;10.00;6.90;;;14.00;99.90;;;;;;5050998;28;20265;-75
2023/05/11 02:21:41;;;;;;;10.80;5.68;;;14.00;99.90;;;;;;5044204;28;20249;-74
2023/05/11 02:24:08;;;;;;;10.05;5.68;;;14.10;99.90;;;;;;5050180;28;20662;-75
2023/05/11 02:26:34;;;;;;;13.57;5.20;;;14.10;99.90;;;;;;5045530;28;20187;-74
2023/05/11 02:28:59;;;;;;;17.13;6.38;;;13.80;99.90;;;;;;5041511;28;20667;-74
2023/05/11 02:31:29;;;;;;;11.38;5.75;;;13.70;99.90;;;;;;5042850;28;20199;-74
2023/05/11 02:34:01;;;;;;;16.08;6.78;;;13.70;99.90;;;;;;5051407;28;20186;-75
2023/05/11 02:36:28;;;;;;;11.52;5.20;;;13.60;99.90;;;;;;5050038;28;20263;-74
2023/05/11 02:39:01;;;;;;;13.82;6.25;;;13.60;99.90;;;;;;5074528;28;20197;-75
2023/05/11 02:41:29;;;;;;;9.88;5.88;;;13.70;99.90;;;;;;5048817;28;20186;-74
2023/05/11 02:44:00;;;;;;;13.48;5.57;;;13.60;99.90;;;;;;5052208;28;20191;-74
2023/05/11 02:46:30;;;;;;;10.38;5.60;;;13.60;99.90;;;;;;5050189;28;20187;-74
2023/05/11 02:49:01;;;;;;;9.55;5.13;;;13.60;99.90;;;;;;5049941;28;20217;-75
2023/05/11 02:51:34;;;;;;;10.88;5.43;;;13.50;99.90;;;;;;5049413;28;20666;-75
2023/05/11 02:54:01;;;;;;;5.88;4.97;;;13.50;99.90;;;;;;5050855;28;20178;-74
2023/05/11 02:56:28;;;;;;;13.88;7.22;;;13.50;99.90;;;;;;5049748;28;20205;-76
2023/05/11 02:58:54;;;;;;;14.88;5.43;;;13.50;99.90;;;;;;5048348;28;20213;-74
2023/05/11 03:01:20;;;;;;;15.10;4.85;;;13.60;99.90;;;;;;5043286;28;20284;-74
2023/05/11 03:03:46;;;;;;;11.02;5.57;;;13.50;99.90;;;;;;5052371;28;20312;-74
2023/05/11 03:06:12;;;;;;;8.18;4.60;;;13.40;99.90;;;;;;5044238;28;20214;-73
2023/05/11 03:08:39;;;;;;;15.45;6.10;;;13.40;99.90;;;;;;5049994;28;20190;-74
2023/05/11 03:11:05;;;;;;;13.05;5.65;;;13.40;99.90;;;;;;5055716;28;20250;-74
2023/05/11 03:13:32;;;;;;;12.20;4.18;;;13.40;99.90;;;;;;5056100;28;20622;-74
2023/05/11 03:15:59;;;;;;;13.80;5.40;;;13.40;99.90;;;;;;5053602;28;20374;-75
2023/05/11 03:18:25;;;;;;;9.55;5.30;;;13.40;99.90;;;;;;5049145;28;20186;-75
2023/05/11 03:20:51;;;;;;;7.47;5.85;;;13.40;99.90;;;;;;5054918;28;20236;-76
2023/05/11 03:23:17;;;;;;;9.70;4.57;;;13.30;99.90;;;;;;5054744;28;20205;-73
2023/05/11 03:25:44;;;;;;;15.90;7.68;;;13.30;99.90;;;;;;5043900;28;20620;-75
2023/05/11 03:28:11;;;;;;;14.13;5.70;;;13.20;99.90;;;;;;5056178;28;20720;-77
2023/05/11 03:30:39;;;;;;;12.98;5.97;;;13.20;99.90;;;;;;5051804;28;20182;-76
2023/05/11 03:33:05;;;;;;;13.15;5.68;;;13.10;99.90;;;;;;5045972;28;20220;-74
2023/05/11 03:35:33;;;;;;;15.38;5.10;;;13.00;99.90;;;;;;5054616;28;20190;-77
2023/05/11 03:38:00;;;;;;;12.30;6.75;;;13.10;99.90;;;;;;5052088;28;20189;-73
2023/05/11 03:40:28;;;;;;;13.70;6.93;;;13.20;99.90;;;;;;5045067;28;20569;-75
2023/05/11 03:42:56;;;;;;;16.65;8.63;;;13.30;99.90;;;;;;5051551;28;20260;-77
2023/05/11 03:45:23;;;;;;;14.93;7.47;;;13.30;99.90;;;;;;5044037;28;20650;-75
2023/05/11 03:47:51;;;;;;;15.77;8.52;;;13.30;99.90;;;;;;5054887;28;20800;-77
2023/05/11 03:50:17;;;;;;;16.13;7.60;;;13.30;99.90;;;;;;5055041;28;20276;-73
2023/05/11 03:52:43;;;;;;;16.67;8.40;;;13.30;99.90;;;;;;5050714;28;20210;-73
2023/05/11 03:55:09;;;;;;;13.13;8.77;;;13.40;99.90;;;;;;5043700;28;20232;-74
2023/05/11 03:57:35;;;;;;;14.75;8.05;;;13.40;99.90;;;;;;5052899;28;20273;-78
2023/05/11 04:00:01;;;;;;;19.40;8.80;;;13.30;99.90;;;;;;5080294;28;20718;-72
2023/05/11 04:02:27;;;;;;;19.27;10.45;;;13.20;99.90;;;;;;5049615;28;20240;-76
2023/05/11 04:04:52;;;;;;;18.88;9.48;;;13.40;99.90;;;;;;5050194;28;20221;-76
2023/05/11 04:07:18;;;;;;;19.90;9.40;;;13.40;99.90;;;;;;5058369;28;20193;-73
2023/05/11 04:09:44;;;;;;;21.52;9.95;;;13.40;99.90;;;;;;5050793;28;20251;-72
2023/05/11 04:12:10;;;;;;;18.88;8.48;;;13.40;99.90;;;;;;5053688;28;20186;-76
2023/05/11 04:14:36;;;;;;;20.73;9.63;;;13.40;99.90;;;;;;5055190;28;20194;-74
2023/05/11 04:17:01;;;;;;;17.88;10.68;;;13.50;99.90;;;;;;5048405;28;20908;-77
2023/05/11 04:19:27;;;;;;;18.15;8.93;;;13.40;99.90;;;;;;5051828;28;20803;-75
2023/05/11 04:21:52;;;;;;;17.85;9.25;;;13.30;99.90;;;;;;5050052;28;20226;-74
2023/05/11 04:24:18;;;;;;;19.65;9.70;;;13.20;99.90;;;;;;5055112;28;20213;-75
2023/05/11 04:26:44;;;;;;;19.90;8.63;;;13.30;99.90;;;;;;5047450;28;20213;-74
2023/05/11 04:29:09;;;;;;;18.45;8.48;;;13.30;99.90;;;;;;5054482;28;20247;-76
2023/05/11 04:31:35;;;;;;;19.52;8.13;;;13.40;99.90;;;;;;5055271;28;20210;-76
2023/05/11 04:34:01;;;;;;;18.13;8.82;;;13.50;99.90;;;;;;5054399;28;20186;-74
2023/05/11 04:36:27;;;;;;;19.67;11.20;;;13.60;99.90;;;;;;5043927;28;20190;-75
2023/05/11 04:38:52;;;;;;;18.17;8.43;;;13.60;99.90;;;;;;5054505;28;20186;-74
2023/05/11 04:41:18;;;;;;;18.73;8.82;;;13.70;99.90;;;;;;5050801;28;20194;-74
2023/05/11 04:43:44;;;;;;;20.52;8.90;;;13.70;99.90;;;;;;5049578;28;20222;-74
2023/05/11 04:46:10;;;;;;;23.90;10.00;;;13.70;99.90;;;;;;5036049;28;20190;-74
2023/05/11 04:48:35;;;;;;;22.55;9.50;;;13.70;99.90;;;;;;5048326;28;20198;-74
2023/05/11 04:51:04;;;;;;;17.45;9.82;;;13.90;99.90;;;;;;5076251;28;20182;-72
2023/05/11 04:53:30;;;;;;;18.08;10.13;;;13.80;99.90;;;;;;5054097;28;20269;-72
2023/05/11 04:55:56;;;;;;;21.52;10.00;;;13.70;99.90;;;;;;5053233;28;20317;-73
2023/05/11 04:58:22;;;;;;;22.73;10.70;;;13.60;99.90;;;;;;5055746;28;20178;-72
2023/05/11 05:00:47;;;;;;;17.92;9.10;;;13.60;99.90;;;;;;5057623;28;20200;-69
2023/05/11 05:03:13;;;;;;;18.17;9.02;;;13.60;99.90;;;;;;5060429;28;20287;-69
2023/05/11 05:05:39;;;;;;;20.63;10.02;;;13.60;99.90;;;;;;5053208;28;20269;-69
2023/05/11 05:08:06;;;;;;;22.92;9.68;;;13.60;99.90;;;;;;5049590;28;20277;-72
2023/05/11 05:10:32;;;;;;;18.58;10.38;;;13.60;99.90;;;;;;5041586;28;20639;-72
2023/05/11 05:12:57;;;;;;;20.52;9.35;;;13.70;99.90;;;;;;5053802;28;20186;-74
2023/05/11 05:15:23;;;;;;;22.50;10.20;;;13.80;99.90;;;;;;5053923;28;20204;-77
2023/05/11 05:17:49;;;;;;;21.08;9.63;;;13.80;99.90;;;;;;5042424;28;20205;-76
2023/05/11 05:20:15;;;;;;;25.38;10.35;;;13.90;99.90;;;;;;5054290;28;20230;-75
2023/05/11 05:22:40;;;;;;;17.40;9.38;;;13.90;99.90;;;;;;5053670;28;20652;-76
2023/05/11 05:25:07;;;;;;;20.50;9.85;;;14.10;99.90;;;;;;5052722;28;20684;-75
2023/05/11 05:27:33;;;;;;;21.65;10.57;;;14.40;99.90;;;;;;5054030;28;20251;-76
2023/05/11 05:29:58;;;;;;;20.63;8.60;;;14.70;99.90;;;;;;5051583;28;20650;-75
2023/05/11 05:32:24;;;;;;;21.17;8.98;;;14.90;99.90;;;;;;5053481;28;20198;-76
2023/05/11 05:34:50;;;;;;;22.63;9.27;;;15.40;99.90;;;;;;5047269;28;20547;-76
2023/05/11 05:37:16;;;;;;;18.40;9.35;;;15.90;99.90;;;;;;5060941;28;20191;-76
2023/05/11 05:39:41;;;;;;;14.00;8.07;;;16.00;99.90;;;;;;5049507;28;20643;-75
2023/05/11 05:42:07;;;;;;;11.73;7.85;;;16.20;99.90;;;;;;5052362;28;20220;-77
2023/05/11 05:44:33;;;;;;;14.57;7.68;;;16.10;99.90;;;;;;5049179;28;20273;-79
2023/05/11 05:46:58;;;;;;;17.27;7.85;;;16.10;99.90;;;;;;5050938;28;20320;-75
2023/05/11 05:49:24;;;;;;;14.98;8.80;;;16.50;99.90;;;;;;5048162;28;20277;-77
2023/05/11 05:51:50;;;;;;;18.10;7.63;;;16.60;99.90;;;;;;5047179;28;20262;-75
2023/05/11 05:54:16;;;;;;;11.18;6.88;;;16.80;99.90;;;;;;5053459;28;20701;-75
2023/05/11 05:56:43;;;;;;;16.67;7.35;;;17.10;99.90;;;;;;5047499;28;20246;-75
2023/05/11 05:59:09;;;;;;;12.73;6.65;;;17.30;99.90;;;;;;5056832;28;20248;-75
2023/05/11 06:01:35;;;;;;;9.85;6.72;;;17.40;99.90;;;;;;5049295;28;20193;-76
2023/05/11 06:04:01;;;;;;;16.05;7.13;;;17.60;99.90;;;;;;5053366;28;20269;-75
2023/05/11 06:06:27;;;;;;;10.55;6.38;;;17.70;99.90;;;;;;5046541;28;20603;-75
2023/05/11 06:08:53;;;;;;;9.10;5.68;;;17.30;99.90;;;;;;5053045;28;20185;-75
2023/05/11 06:11:18;;;;;;;9.68;6.15;;;17.50;99.90;;;;;;5051454;28;20186;-75
2023/05/11 06:13:44;;;;;;;10.63;5.90;;;17.80;99.90;;;;;;5040594;28;20190;-74
2023/05/11 06:16:10;;;;;;;9.82;5.68;;;17.80;99.90;;;;;;5033962;28;20557;-74
2023/05/11 06:18:35;;;;;;;8.63;5.70;;;17.70;99.90;;;;;;5047129;28;20226;-76
2023/05/11 06:21:01;;;;;;;13.68;6.78;;;17.50;99.90;;;;;;5045917;28;20190;-75
2023/05/11 06:23:27;;;;;;;11.30;5.63;;;17.60;99.90;;;;;;5048217;28;20648;-75
2023/05/11 06:25:52;;;;;;;9.02;5.50;;;17.50;99.90;;;;;;5050741;28;20308;-75
2023/05/11 06:28:18;;;;;;;9.13;5.63;;;17.40;99.90;;;;;;5044501;28;20204;-75
2023/05/11 06:30:44;;;;;;;14.90;7.25;;;17.40;99.90;;;;;;5081270;28;20273;-74
2023/05/11 06:33:10;;;;;;;13.05;6.80;;;17.40;99.90;;;;;;5053181;28;20265;-74
2023/05/11 06:35:36;;;;;;;8.13;6.00;;;17.30;99.90;;;;;;5040110;28;20190;-75
2023/05/11 06:38:02;;;;;;;9.57;6.05;;;17.30;99.90;;;;;;5033723;28;20544;-75
2023/05/11 06:40:28;;;;;;;13.80;6.38;;;17.40;99.90;;;;;;5050884;28;20186;-75
2023/05/11 06:42:53;;;;;;;7.90;5.95;;;17.60;99.90;;;;;;5050963;28;20570;-76
2023/05/11 06:45:19;;;;;;;9.05;5.45;;;17.50;99.90;;;;;;5052407;28;20193;-74
2023/05/11 06:47:45;;;;;;;9.15;6.55;;;17.60;99.90;;;;;;5051766;28;20606;-75
2023/05/11 06:50:10;;;;;;;9.32;6.07;;;17.60;99.90;;;;;;5052377;28;20187;-75
2023/05/11 06:52:36;;;;;;;9.98;5.13;;;17.60;99.90;;;;;;5034277;28;20221;-74
2023/05/11 06:55:03;;;;;;;10.25;5.68;;;17.80;99.90;;;;;;5052411;28;20186;-75
2023/05/11 06:57:29;;;;;;;9.10;5.10;;;18.10;99.90;;;;;;5052452;28;20186;-74
2023/05/11 06:59:54;;;;;;;11.82;5.72;;;18.00;99.90;;;;;;5051487;28;20189;-75
2023/05/11 07:02:20;;;;;;;9.52;5.75;;;17.70;99.90;;;;;;5049994;28;20202;-75
2023/05/11 07:04:46;;;;;;;13.10;4.60;;;18.00;99.90;;;;;;5034014;28;20574;-75
2023/05/11 07:07:11;;;;;;;7.78;5.13;;;18.20;99.90;;;;;;5049064;28;20197;-74
2023/05/11 07:09:37;;;;;;;6.32;4.63;;;18.60;99.90;;;;;;5046156;28;20567;-75
2023/05/11 07:12:03;;;;;;;8.63;3.90;;;18.80;99.90;;;;;;5047335;28;20682;-74
2023/05/11 07:14:29;;;;;;;6.60;4.10;;;19.50;99.90;;;;;;5045605;28;20203;-75
2023/05/11 07:16:54;;;;;;;11.30;4.15;;;20.10;99.90;;;;;;5039423;28;20201;-75
2023/05/11 07:19:20;;;;;;;6.25;4.13;;;20.50;99.90;;;;;;5052346;28;20332;-75
2023/05/11 07:21:46;;;;;;;9.73;4.00;;;20.50;99.90;;;;;;5040783;28;20245;-75
2023/05/11 07:24:12;;;;;;;6.13;3.58;;;20.80;99.90;;;;;;5045701;28;20533;-75
2023/05/11 07:26:37;;;;;;;6.53;4.00;;;20.50;99.90;;;;;;5043660;28;20190;-76
2023/05/11 07:29:03;;;;;;;5.05;3.63;;;20.40;99.90;;;;;;5048665;28;20260;-75
2023/05/11 07:31:29;;;;;;;5.15;3.85;;;20.50;99.90;;;;;;5048471;28;20216;-75
2023/05/11 07:33:55;;;;;;;5.90;3.90;;;20.50;99.90;;;;;;5046487;28;20588;-76
2023/05/11 07:36:21;;;;;;;7.00;4.25;;;20.20;99.90;;;;;;5041888;28;20210;-75
2023/05/11 07:38:46;;;;;;;5.45;4.68;;;20.00;99.90;;;;;;5050500;28;20210;-75
2023/05/11 07:41:12;;;;;;;5.50;4.38;;;20.20;99.90;;;;;;5039454;28;20648;-74
2023/05/11 07:43:38;;;;;;;4.38;3.47;;;21.40;99.90;;;;;;5047820;28;20259;-75
2023/05/11 07:46:04;;;;;;;3.88;3.40;;;22.50;99.90;;;;;;5050813;28;20603;-80
2023/05/11 07:48:29;;;;;;;7.72;3.53;;;22.40;99.90;;;;;;5050477;28;20217;-74
2023/05/11 07:50:55;;;;;;;7.97;5.65;;;22.10;99.90;;;;;;5050903;28;20198;-75
2023/05/11 07:53:21;;;;;;;7.80;4.40;;;21.60;99.90;;;;;;5053251;28;20217;-75
2023/05/11 07:55:46;;;;;;;6.47;3.95;;;21.00;99.90;;;;;;5054715;28;20658;-76
2023/05/11 07:58:12;;;;;;;6.78;5.03;;;20.60;99.90;;;;;;5082416;28;20189;-75
2023/05/11 08:00:38;;;;;;;6.75;4.25;;;20.10;99.90;;;;;;5052329;28;20639;-75
2023/05/11 08:03:03;;;;;;;7.93;4.80;;;20.50;99.90;;;;;;5045626;28;20679;-74
2023/05/11 08:05:31;;;;;;;8.93;4.80;;;21.90;99.90;;;;;;5053852;28;20221;-75
2023/05/11 08:07:57;;;;;;;5.68;3.92;;;23.20;99.90;;;;;;5047396;28;20194;-75
2023/05/11 08:10:23;;;;;;;6.47;4.25;;;23.10;99.90;;;;;;5049784;28;20228;-75
2023/05/11 08:12:49;;;;;;;11.07;5.10;;;22.40;99.90;;;;;;5051898;28;20268;-75
2023/05/11 08:15:14;;;;;;;10.70;4.93;;;21.90;99.90;;;;;;5043032;28;20612;-75
2023/05/11 08:17:41;;;;;;;6.05;4.00;;;21.40;99.90;;;;;;5054455;28;20201;-75
2023/05/11 08:20:08;;;;;;;5.28;4.25;;;21.40;99.90;;;;;;5053039;28;20232;-75
2023/05/11 08:22:34;;;;;;;4.88;4.32;;;21.90;99.90;;;;;;5043013;28;20268;-75
2023/05/11 08:25:00;;;;;;;8.88;5.00;;;23.10;99.90;;;;;;5049025;28;20190;-75
2023/05/11 08:27:25;;;;;;;8.18;4.60;;;23.00;99.90;;;;;;5038418;28;20240;-75
2023/05/11 08:29:51;;;;;;;10.68;4.90;;;22.20;99.90;;;;;;5045314;28;20174;-74
2023/05/11 08:32:17;;;;;;;7.53;4.43;;;21.40;99.90;;;;;;5052639;28;20201;-74
2023/05/11 08:34:43;;;;;;;7.30;4.22;;;21.30;99.90;;;;;;5044719;28;20186;-75
2023/05/11 08:37:09;;;;;;;4.93;3.97;;;22.10;99.90;;;;;;5047994;28;20190;-74
2023/05/11 08:39:35;;;;;;;7.13;5.20;;;22.50;99.90;;;;;;5047786;28;20190;-75
2023/05/11 08:42:04;;;;;;;6.75;4.80;;;22.10;99.90;;;;;;5053893;28;20210;-75
2023/05/11 08:44:33;;;;;;;12.20;5.00;;;22.30;99.90;;;;;;5043957;28;20206;-75
2023/05/11 08:46:59;;;;;;;8.18;4.20;;;21.70;99.90;;;;;;5082346;28;20252;-75
2023/05/11 08:49:26;;;;;;;9.68;5.32;;;21.80;99.90;;;;;;5051480;28;20647;-75
2023/05/11 08:51:52;;;;;;;9.93;5.68;;;21.50;99.90;;;;;;5054523;28;20209;-75
2023/05/11 08:54:18;;;;;;;8.35;4.50;;;22.20;99.90;;;;;;5053382;28;20569;-76
2023/05/11 08:56:46;;;;;;;8.00;4.50;;;23.30;99.90;;;;;;5052849;28;20196;-75
2023/05/11 08:59:12;;;;;;;7.78;5.45;;;23.60;99.90;;;;;;5042773;28;20658;-75
2023/05/11 09:01:40;;;;;;;6.40;4.38;;;23.30;99.90;;;;;;5043507;28;20181;-75
2023/05/11 09:04:07;;;;;;;6.82;4.90;;;22.90;99.90;;;;;;5053165;28;20549;-75
2023/05/11 09:06:34;;;;;;;4.93;3.53;;;22.40;99.90;;;;;;5049212;28;20210;-75
2023/05/11 09:09:00;;;;;;;5.75;4.03;;;22.30;99.90;;;;;;5063986;28;20194;-75
2023/05/11 09:11:28;;;;;;;5.25;3.40;;;21.70;99.90;;;;;;5039831;28;20182;-75
2023/05/11 09:13:53;;;;;;;6.45;3.92;;;21.10;99.90;;;;;;5042542;28;20649;-75
2023/05/11 09:16:19;;;;;;;6.32;4.15;;;21.00;99.90;;;;;;5046049;28;20241;-75
2023/05/11 09:18:50;;;;;;;10.25;5.07;;;20.80;99.90;;;;;;5046475;28;20234;-75
2023/05/11 09:21:16;;;;;;;6.85;4.20;;;20.80;99.90;;;;;;5054214;28;20185;-75
2023/05/11 09:23:42;;;;;;;7.22;4.55;;;20.90;99.90;;;;;;5049376;28;20228;-75
2023/05/11 09:26:23;;;;;;;10.50;4.20;;;21.30;99.90;;;;;;5047043;28;20182;-74
2023/05/11 09:28:54;;;;;;;10.13;4.68;;;21.80;99.90;;;;;;5042947;28;20183;-74
2023/05/11 09:31:46;;;;;;;12.63;5.65;;;21.80;99.90;;;;;;5053354;28;20277;-73
2023/05/11 09:34:17;;;;;;;9.20;5.30;;;21.80;99.90;;;;;;5053613;28;20321;-74
2023/05/11 09:36:46;;;;;;;10.73;4.85;;;21.40;99.90;;;;;;5052466;28;20178;-75
2023/05/11 09:39:13;;;;;;;8.85;4.75;;;21.40;99.90;;;;;;5044080;28;20702;-75
2023/05/11 09:41:39;;;;;;;11.93;6.05;;;21.30;99.90;;;;;;5083978;28;20182;-74
2023/05/11 09:44:15;;;;;;;12.68;5.57;;;21.10;99.90;;;;;;5052848;28;20173;-74
2023/05/11 09:46:43;;;;;;;10.07;4.18;;;21.00;99.90;;;;;;5053490;28;20212;-75
2023/05/11 09:49:10;;;;;;;5.05;4.20;;;21.30;99.90;;;;;;5053225;28;20298;-75
2023/05/11 09:51:39;;;;;;;5.05;3.97;;;21.60;99.90;;;;;;5041738;28;20191;-75
2023/05/11 09:54:21;;;;;;;5.18;4.25;;;21.60;99.90;;;;;;5044858;28;20187;-74
2023/05/11 09:56:49;;;;;;;6.90;4.05;;;21.40;99.90;;;;;;5037866;28;20182;-75
2023/05/11 09:59:16;;;;;;;6.65;4.13;;;21.40;99.90;;;;;;5048589;28;20524;-75
2023/05/11 10:01:42;;;;;;;5.45;4.20;;;21.40;99.90;;;;;;5049677;28;20598;-77
2023/05/11 10:04:07;;;;;;;4.28;3.35;;;21.40;99.90;;;;;;5050933;28;20261;-74
2023/05/11 10:06:51;;;;;;;6.72;4.43;;;21.30;99.90;;;;;;5030927;28;20198;-74
2023/05/11 10:09:23;;;;;;;5.93;4.50;;;20.80;99.90;;;;;;5052303;28;20208;-75
2023/05/11 10:11:50;;;;;;;7.72;3.75;;;20.70;99.90;;;;;;5053077;28;20212;-75
2023/05/11 10:14:17;;;;;;;3.90;3.30;;;20.70;99.90;;;;;;5049250;28;20659;-74
2023/05/11 10:16:45;;;;;;;9.35;4.45;;;20.70;99.90;;;;;;5045461;28;20539;-75
2023/05/11 10:19:12;;;;;;;3.72;3.35;;;21.00;99.90;;;;;;5050639;28;20751;-75
2023/05/11 10:21:38;;;;;;;4.95;4.03;;;21.20;99.90;;;;;;5048226;28;20217;-74
2023/05/11 10:24:05;;;;;;;5.07;3.33;;;21.20;99.90;;;;;;5047333;28;20187;-74
2023/05/11 10:26:31;;;;;;;4.90;3.67;;;21.30;99.90;;;;;;5039221;28;20232;-74
2023/05/11 10:29:00;;;;;;;4.95;3.17;;;21.30;99.90;;;;;;5048374;28;20273;-74
2023/05/11 10:31:26;;;;;;;3.05;2.70;;;21.30;99.90;;;;;;5041765;28;20175;-75
2023/05/11 10:33:52;;;;;;;6.55;3.83;;;21.20;99.90;;;;;;5056621;28;20643;-77
2023/05/11 10:36:18;;;;;;;7.45;3.47;;;21.30;99.90;;;;;;5053764;28;20186;-75
2023/05/11 10:38:44;;;;;;;5.25;3.20;;;21.50;99.90;;;;;;5052891;28;20177;-76
2023/05/11 10:41:30;;;;;;;6.70;3.60;;;21.40;99.90;;;;;;5039928;28;20278;-75
2023/05/11 10:44:25;;;;;;;7.97;3.40;;;21.40;99.90;;;;;;5041025;28;20226;-75
2023/05/11 10:46:57;;;;;;;4.03;3.30;;;21.50;99.90;;;;;;5052202;28;20682;-75
2023/05/11 10:50:12;;;;;;;4.68;3.58;;;21.40;99.90;;;;;;5051093;28;20563;-74
2023/05/11 10:53:02;;;;;;;7.03;3.80;;;21.40;99.90;;;;;;5050434;28;20556;-74
2023/05/11 10:55:47;;;;;;;6.40;3.90;;;21.30;99.90;;;;;;5051506;28;20186;-74
2023/05/11 10:58:17;;;;;;;5.88;3.75;;;21.50;99.90;;;;;;5046810;28;20190;-77
2023/05/11 11:01:03;;;;;;;5.55;4.07;;;21.30;99.90;;;;;;5052584;28;20178;-75
2023/05/11 11:03:29;;;;;;;6.60;3.45;;;21.20;99.90;;;;;;5044297;28;20737;-76
2023/05/11 11:05:55;;;;;;;3.53;3.20;;;21.10;99.90;;;;;;5052152;28;20186;-75
2023/05/11 11:08:21;;;;;;;7.22;3.70;;;21.10;99.90;;;;;;5051258;28;20211;-75
2023/05/11 11:10:48;;;;;;;10.85;3.70;;;21.30;99.90;;;;;;5046787;28;20196;-76
2023/05/11 11:13:17;;;;;;;7.68;4.15;;;21.40;99.90;;;;;;5045287;28;20198;-75
2023/05/11 11:15:54;;;;;;;5.18;2.92;;;21.20;99.90;;;;;;5040345;28;20174;-76
2023/05/11 11:18:28;;;;;;;10.20;5.05;;;21.20;99.90;;;;;;5052120;28;20181;-77
2023/05/11 11:20:56;;;;;;;14.23;4.05;;;21.50;99.90;;;;;;5046519;28;20208;-76
2023/05/11 11:23:48;;;;;;;4.72;3.28;;;21.60;99.90;;;;;;5044995;28;20255;-75
2023/05/11 11:26:18;;;;;;;6.45;3.28;;;21.60;99.90;;;;;;5040973;28;20236;-75
2023/05/11 11:28:56;;;;;;;4.65;3.03;;;21.60;99.90;;;;;;5055648;28;20662;-75
2023/05/11 11:31:21;;;;;;;8.32;3.97;;;21.60;99.90;;;;;;5051028;28;20189;-75
2023/05/11 11:33:47;;;;;;;6.13;3.15;;;21.70;99.90;;;;;;5050385;28;20236;-76
2023/05/11 11:36:15;;;;;;;5.13;3.80;;;22.00;99.90;;;;;;5045538;28;20193;-75
2023/05/11 11:39:00;;;;;;;3.83;3.42;;;22.10;99.90;;;;;;5056056;28;20666;-76
2023/05/11 11:41:31;;;;;;;6.90;3.58;;;22.10;99.90;;;;;;5045995;28;20189;-75
2023/05/11 11:43:58;;;;;;;6.28;3.60;;;22.00;99.90;;;;;;5053677;28;20206;-75
2023/05/11 11:46:28;;;;;;;6.25;3.70;;;22.10;99.90;;;;;;5056024;28;20196;-76
2023/05/11 11:49:08;;;;;;;5.63;3.75;;;22.20;99.90;;;;;;5032684;28;20576;-75
2023/05/11 11:51:36;;;;;;;3.30;3.08;;;22.40;99.90;;;;;;5050074;28;20235;-75
2023/05/11 11:54:03;;;;;;;6.68;3.05;;;22.60;99.90;;;;;;5055784;28;20174;-75
2023/05/11 11:56:28;;;;;;;3.50;3.17;;;22.80;99.90;;;;;;5055830;28;20678;-75
2023/05/11 11:58:58;;;;;;;2.85;2.65;;;23.00;99.90;;;;;;5044126;28;20206;-76
2023/05/11 12:01:38;;;;;;;7.63;2.63;;;23.20;99.90;;;;;;5054492;28;20206;-75
2023/05/11 12:04:03;;;;;;;5.90;3.63;;;23.10;99.90;;;;;;5043428;28;20205;-75
2023/05/11 12:06:56;;;;;;;7.55;4.38;;;23.20;99.90;;;;;;5050377;28;20540;-76
2023/05/11 12:09:23;;;;;;;8.00;5.07;;;22.80;99.90;;;;;;5049824;28;20712;-75
2023/05/11 12:11:50;;;;;;;8.35;4.57;;;22.50;99.90;;;;;;5048043;28;20186;-75
2023/05/11 12:14:15;;;;;;;7.78;5.20;;;21.80;99.90;;;;;;5055161;28;20197;-75
2023/05/11 12:16:41;;;;;;;9.13;4.40;;;21.50;99.90;;;;;;5055489;28;20182;-76
2023/05/11 12:19:07;;;;;;;7.07;4.97;;;21.20;99.90;;;;;;5053457;28;20237;-75
2023/05/11 12:21:32;;;;;;;9.93;5.03;;;21.10;99.90;;;;;;5055061;28;20182;-76
2023/05/11 12:24:00;;;;;;;7.60;4.97;;;20.80;99.90;;;;;;5054185;28;20206;-75
2023/05/11 12:26:28;;;;;;;9.57;6.10;;;20.60;99.90;;;;;;5054618;28;20174;-75
2023/05/11 12:29:11;;;;;;;7.68;4.70;;;20.60;99.90;;;;;;5054857;28;20182;-76
2023/05/11 12:31:43;;;;;;;11.55;5.65;;;20.50;99.90;;;;;;5053146;28;20189;-76
2023/05/11 12:34:15;;;;;;;9.98;5.22;;;20.70;99.90;;;;;;5054914;28;20205;-78
2023/05/11 12:36:41;;;;;;;9.75;5.57;;;21.00;99.90;;;;;;5041510;28;20235;-76
2023/05/11 12:39:07;;;;;;;7.95;4.72;;;21.10;99.90;;;;;;5053515;28;20215;-75
2023/05/11 12:41:33;;;;;;;7.28;6.03;;;21.10;99.90;;;;;;5053436;28;20246;-76
2023/05/11 12:43:59;;;;;;;8.73;5.20;;;21.30;99.90;;;;;;5053310;28;20678;-76
2023/05/11 12:46:24;;;;;;;9.15;5.13;;;21.40;99.90;;;;;;5054697;28;20194;-75